sensor_id;sensor_type;location;lat;lon;timestamp;pressure;altitude;pressure_sealevel;temperature;humidity
71772;BME280;59606;52.138;5.424;2024-03-17T00:01:04;102432.28;;;5.03;100.00
71772;BME280;59606;52.138;5.424;2024-03-17T00:03:30;102431.41;;;5.04;100.00
71772;BME280;59606;52.138;5.424;2024-03-17T00:06:00;102427.13;;;5.03;100.00
71772;BME280;59606;52.138;5.424;2024-03-17T00:08:27;102420.22;;;5.04;100.00
71772;BME280;59606;52.138;5.424;2024-03-17T00:10:53;102415.88;;;5.06;100.00
71772;BME280;59606;52.138;5.424;2024-03-17T00:13:20;102412.47;;;5.04;100.00
71772;BME280;59606;52.138;5.424;2024-03-17T00:15:48;102415.06;;;5.04;100.00
71772;BME280;59606;52.138;5.424;2024-03-17T00:18:14;102415.91;;;5.04;100.00
71772;BME280;59606;52.138;5.424;2024-03-17T00:20:40;102409.91;;;5.04;100.00
71772;BME280;59606;52.138;5.424;2024-03-17T00:23:05;102412.47;;;5.04;100.00
71772;BME280;59606;52.138;5.424;2024-03-17T00:25:32;102403.88;;;5.03;100.00
71772;BME280;59606;52.138;5.424;2024-03-17T00:28:00;102397.81;;;5.03;100.00
71772;BME280;59606;52.138;5.424;2024-03-17T00:30:25;102404.75;;;5.01;100.00
71772;BME280;59606;52.138;5.424;2024-03-17T00:32:51;102409.06;;;4.99;100.00
71772;BME280;59606;52.138;5.424;2024-03-17T00:35:17;102406.47;;;4.99;100.00
71772;BME280;59606;52.138;5.424;2024-03-17T00:37:49;102406.50;;;4.97;100.00
71772;BME280;59606;52.138;5.424;2024-03-17T00:40:18;102398.75;;;4.97;100.00
71772;BME280;59606;52.138;5.424;2024-03-17T00:42:45;102403.91;;;4.97;100.00
71772;BME280;59606;52.138;5.424;2024-03-17T00:45:11;102397.00;;;4.97;100.00
71772;BME280;59606;52.138;5.424;2024-03-17T00:47:37;102396.16;;;4.97;100.00
71772;BME280;59606;52.138;5.424;2024-03-17T00:50:04;102389.25;;;4.97;100.00
71772;BME280;59606;52.138;5.424;2024-03-17T00:52:32;102385.81;;;4.97;100.00
71772;BME280;59606;52.138;5.424;2024-03-17T00:54:57;102387.53;;;4.98;100.00
71772;BME280;59606;52.138;5.424;2024-03-17T00:57:23;102390.97;;;4.99;100.00
71772;BME280;59606;52.138;5.424;2024-03-17T00:59:49;102393.56;;;4.97;100.00
71772;BME280;59606;52.138;5.424;2024-03-17T01:02:15;102389.25;;;4.96;100.00
71772;BME280;59606;52.138;5.424;2024-03-17T01:04:44;102383.25;;;4.94;100.00
71772;BME280;59606;52.138;5.424;2024-03-17T01:07:11;102393.59;;;4.94;100.00
71772;BME280;59606;52.138;5.424;2024-03-17T01:09:37;102378.97;;;4.93;100.00
71772;BME280;59606;52.138;5.424;2024-03-17T01:12:03;102378.94;;;4.94;100.00
71772;BME280;59606;52.138;5.424;2024-03-17T01:14:29;102384.09;;;4.96;100.00
71772;BME280;59606;52.138;5.424;2024-03-17T01:16:56;102369.47;;;4.95;100.00
71772;BME280;59606;52.138;5.424;2024-03-17T01:19:22;102370.34;;;4.97;100.00
71772;BME280;59606;52.138;5.424;2024-03-17T01:21:47;102374.66;;;4.96;100.00
71772;BME280;59606;52.138;5.424;2024-03-17T01:24:13;102371.19;;;4.96;100.00
71772;BME280;59606;52.138;5.424;2024-03-17T01:26:39;102367.75;;;4.95;100.00
71772;BME280;59606;52.138;5.424;2024-03-17T01:29:04;102369.47;;;4.95;100.00
71772;BME280;59606;52.138;5.424;2024-03-17T01:31:30;102368.59;;;4.96;100.00
71772;BME280;59606;52.138;5.424;2024-03-17T01:33:56;102360.88;;;4.94;100.00
71772;BME280;59606;52.138;5.424;2024-03-17T01:36:21;102359.13;;;4.98;100.00
71772;BME280;59606;52.138;5.424;2024-03-17T01:38:47;102358.25;;;4.99;100.00
71772;BME280;59606;52.138;5.424;2024-03-17T01:41:13;102354.81;;;4.99;100.00
71772;BME280;59606;52.138;5.424;2024-03-17T01:43:39;102358.25;;;4.99;100.00
71772;BME280;59606;52.138;5.424;2024-03-17T01:46:06;102350.50;;;4.99;100.00
71772;BME280;59606;52.138;5.424;2024-03-17T01:48:37;102337.63;;;4.97;100.00
71772;BME280;59606;52.138;5.424;2024-03-17T01:51:02;102341.03;;;5.00;100.00
71772;BME280;59606;52.138;5.424;2024-03-17T01:53:28;102327.28;;;4.97;100.00
71772;BME280;59606;52.138;5.424;2024-03-17T01:55:56;102324.69;;;4.96;100.00
71772;BME280;59606;52.138;5.424;2024-03-17T01:58:27;102339.34;;;4.97;100.00
71772;BME280;59606;52.138;5.424;2024-03-17T02:00:56;102332.44;;;4.96;100.00
71772;BME280;59606;52.138;5.424;2024-03-17T02:03:22;102331.59;;;4.95;100.00
71772;BME280;59606;52.138;5.424;2024-03-17T02:05:48;102340.19;;;4.97;100.00
71772;BME280;59606;52.138;5.424;2024-03-17T02:08:14;102329.00;;;4.97;100.00
71772;BME280;59606;52.138;5.424;2024-03-17T02:10:40;102336.72;;;4.99;100.00
71772;BME280;59606;52.138;5.424;2024-03-17T02:13:05;102333.28;;;5.00;100.00
71772;BME280;59606;52.138;5.424;2024-03-17T02:15:32;102326.41;;;5.00;100.00
71772;BME280;59606;52.138;5.424;2024-03-17T02:17:58;102329.81;;;5.02;100.00
71772;BME280;59606;52.138;5.424;2024-03-17T02:20:24;102327.25;;;5.04;100.00
71772;BME280;59606;52.138;5.424;2024-03-17T02:23:08;102322.94;;;5.04;100.00
71772;BME280;59606;52.138;5.424;2024-03-17T02:25:34;102325.47;;;5.06;100.00
71772;BME280;59606;52.138;5.424;2024-03-17T02:28:00;102322.91;;;5.07;100.00
71772;BME280;59606;52.138;5.424;2024-03-17T02:30:26;102325.47;;;5.10;100.00
71772;BME280;59606;52.138;5.424;2024-03-17T02:32:52;102320.28;;;5.12;100.00
71772;BME280;59606;52.138;5.424;2024-03-17T02:35:18;102318.53;;;5.12;100.00
71772;BME280;59606;52.138;5.424;2024-03-17T02:37:43;102315.97;;;5.14;100.00
71772;BME280;59606;52.138;5.424;2024-03-17T02:40:09;102313.34;;;5.15;100.00
71772;BME280;59606;52.138;5.424;2024-03-17T02:42:36;102304.75;;;5.16;100.00
71772;BME280;59606;52.138;5.424;2024-03-17T02:45:04;102304.72;;;5.18;100.00
71772;BME280;59606;52.138;5.424;2024-03-17T02:47:30;102305.56;;;5.18;100.00
71772;BME280;59606;52.138;5.424;2024-03-17T02:49:55;102302.13;;;5.19;100.00
71772;BME280;59606;52.138;5.424;2024-03-17T02:52:21;102306.44;;;5.20;100.00
71772;BME280;59606;52.138;5.424;2024-03-17T02:54:46;102303.84;;;5.20;100.00
71772;BME280;59606;52.138;5.424;2024-03-17T02:57:12;102302.09;;;5.23;100.00
71772;BME280;59606;52.138;5.424;2024-03-17T02:59:37;102308.16;;;5.23;100.00
71772;BME280;59606;52.138;5.424;2024-03-17T03:02:03;102302.09;;;5.24;100.00
71772;BME280;59606;52.138;5.424;2024-03-17T03:04:29;102296.91;;;5.26;100.00
71772;BME280;59606;52.138;5.424;2024-03-17T03:06:55;102301.22;;;5.25;100.00
71772;BME280;59606;52.138;5.424;2024-03-17T03:09:21;102296.06;;;5.27;100.00
71772;BME280;59606;52.138;5.424;2024-03-17T03:11:52;102302.03;;;5.29;100.00
71772;BME280;59606;52.138;5.424;2024-03-17T03:14:19;102294.28;;;5.30;100.00
71772;BME280;59606;52.138;5.424;2024-03-17T03:16:44;102296.84;;;5.32;100.00
71772;BME280;59606;52.138;5.424;2024-03-17T03:19:10;102302.00;;;5.35;100.00
71772;BME280;59606;52.138;5.424;2024-03-17T03:21:35;102297.66;;;5.35;100.00
71772;BME280;59606;52.138;5.424;2024-03-17T03:24:01;102294.22;;;5.35;100.00
71772;BME280;59606;52.138;5.424;2024-03-17T03:26:26;102288.19;;;5.36;100.00
71772;BME280;59606;52.138;5.424;2024-03-17T03:28:54;102290.75;;;5.39;100.00
71772;BME280;59606;52.138;5.424;2024-03-17T03:31:20;102293.34;;;5.40;100.00
71772;BME280;59606;52.138;5.424;2024-03-17T03:33:47;102298.47;;;5.42;100.00
71772;BME280;59606;52.138;5.424;2024-03-17T03:36:15;102299.31;;;5.42;100.00
71772;BME280;59606;52.138;5.424;2024-03-17T03:38:42;102298.44;;;5.45;100.00
71772;BME280;59606;52.138;5.424;2024-03-17T03:41:13;102292.38;;;5.46;100.00
71772;BME280;59606;52.138;5.424;2024-03-17T03:43:38;102282.06;;;5.48;100.00
71772;BME280;59606;52.138;5.424;2024-03-17T03:46:04;102279.47;;;5.48;100.00
71772;BME280;59606;52.138;5.424;2024-03-17T03:48:31;102278.59;;;5.49;100.00
71772;BME280;59606;52.138;5.424;2024-03-17T03:50:57;102282.03;;;5.49;100.00
71772;BME280;59606;52.138;5.424;2024-03-17T03:53:24;102275.13;;;5.50;100.00
71772;BME280;59606;52.138;5.424;2024-03-17T03:55:49;102265.63;;;5.52;100.00
71772;BME280;59606;52.138;5.424;2024-03-17T03:58:15;102269.06;;;5.52;100.00
71772;BME280;59606;52.138;5.424;2024-03-17T04:00:41;102262.19;;;5.51;100.00
71772;BME280;59606;52.138;5.424;2024-03-17T04:03:06;102254.44;;;5.51;100.00
71772;BME280;59606;52.138;5.424;2024-03-17T04:05:32;102256.16;;;5.52;100.00
71772;BME280;59606;52.138;5.424;2024-03-17T04:08:00;102247.50;;;5.53;100.00
71772;BME280;59606;52.138;5.424;2024-03-17T04:10:25;102249.25;;;5.53;100.00
71772;BME280;59606;52.138;5.424;2024-03-17T04:12:52;102235.47;;;5.52;100.00
71772;BME280;59606;52.138;5.424;2024-03-17T04:15:18;102228.56;;;5.53;100.00
71772;BME280;59606;52.138;5.424;2024-03-17T04:17:43;102232.03;;;5.52;100.00
71772;BME280;59606;52.138;5.424;2024-03-17T04:20:09;102232.06;;;5.50;100.00
71772;BME280;59606;52.138;5.424;2024-03-17T04:22:41;102240.66;;;5.51;100.00
71772;BME280;59606;52.138;5.424;2024-03-17T04:25:08;102230.31;;;5.51;100.00
71772;BME280;59606;52.138;5.424;2024-03-17T04:27:34;102240.66;;;5.51;100.00
71772;BME280;59606;52.138;5.424;2024-03-17T04:30:00;102232.91;;;5.49;100.00
71772;BME280;59606;52.138;5.424;2024-03-17T04:32:26;102222.56;;;5.49;100.00
71772;BME280;59606;52.138;5.424;2024-03-17T04:34:56;102221.72;;;5.50;100.00
71772;BME280;59606;52.138;5.424;2024-03-17T04:37:21;102214.81;;;5.49;100.00
71772;BME280;59606;52.138;5.424;2024-03-17T04:39:48;102215.66;;;5.50;100.00
71772;BME280;59606;52.138;5.424;2024-03-17T04:42:16;102210.50;;;5.50;100.00
71772;BME280;59606;52.138;5.424;2024-03-17T04:44:42;102208.81;;;5.49;100.00
71772;BME280;59606;52.138;5.424;2024-03-17T04:47:08;102207.09;;;5.48;100.00
71772;BME280;59606;52.138;5.424;2024-03-17T04:52:04;102213.97;;;5.49;100.00
71772;BME280;59606;52.138;5.424;2024-03-17T04:54:34;102215.66;;;5.50;100.00
71772;BME280;59606;52.138;5.424;2024-03-17T04:57:00;102213.97;;;5.50;100.00
71772;BME280;59606;52.138;5.424;2024-03-17T04:59:26;102222.53;;;5.52;100.00
71772;BME280;59606;52.138;5.424;2024-03-17T05:01:52;102218.22;;;5.54;100.00
71772;BME280;59606;52.138;5.424;2024-03-17T05:04:18;102221.66;;;5.55;100.00
71772;BME280;59606;52.138;5.424;2024-03-17T05:06:44;102225.09;;;5.55;100.00
71772;BME280;59606;52.138;5.424;2024-03-17T05:09:16;102219.94;;;5.57;100.00
71772;BME280;59606;52.138;5.424;2024-03-17T05:11:42;102228.53;;;5.57;100.00
71772;BME280;59606;52.138;5.424;2024-03-17T05:14:08;102220.78;;;5.57;100.00
71772;BME280;59606;52.138;5.424;2024-03-17T05:16:34;102211.28;;;5.58;100.00
71772;BME280;59606;52.138;5.424;2024-03-17T05:19:00;102211.28;;;5.58;100.00
71772;BME280;59606;52.138;5.424;2024-03-17T05:21:26;102211.28;;;5.58;100.00
71772;BME280;59606;52.138;5.424;2024-03-17T05:23:55;102214.72;;;5.58;100.00
71772;BME280;59606;52.138;5.424;2024-03-17T05:26:22;102212.13;;;5.58;100.00
71772;BME280;59606;52.138;5.424;2024-03-17T05:28:47;102212.09;;;5.60;100.00
71772;BME280;59606;52.138;5.424;2024-03-17T05:31:13;102215.56;;;5.59;100.00
71772;BME280;59606;52.138;5.424;2024-03-17T05:33:43;102213.00;;;5.59;100.00
71772;BME280;59606;52.138;5.424;2024-03-17T05:36:09;102209.56;;;5.58;100.00
71772;BME280;59606;52.138;5.424;2024-03-17T05:38:35;102210.41;;;5.59;100.00
71772;BME280;59606;52.138;5.424;2024-03-17T05:41:04;102206.09;;;5.59;100.00
71772;BME280;59606;52.138;5.424;2024-03-17T05:43:32;102205.22;;;5.60;100.00
71772;BME280;59606;52.138;5.424;2024-03-17T05:46:08;102198.31;;;5.59;100.00
71772;BME280;59606;52.138;5.424;2024-03-17T05:48:35;102203.50;;;5.61;100.00
71772;BME280;59606;52.138;5.424;2024-03-17T05:51:07;102206.09;;;5.61;100.00
71772;BME280;59606;52.138;5.424;2024-03-17T05:53:33;102203.47;;;5.62;100.00
71772;BME280;59606;52.138;5.424;2024-03-17T05:56:03;102205.19;;;5.63;100.00
71772;BME280;59606;52.138;5.424;2024-03-17T05:58:29;102210.38;;;5.63;100.00
71772;BME280;59606;52.138;5.424;2024-03-17T06:00:56;102211.22;;;5.64;100.00
71772;BME280;59606;52.138;5.424;2024-03-17T06:03:26;102210.34;;;5.65;100.00
71772;BME280;59606;52.138;5.424;2024-03-17T06:05:55;102219.78;;;5.66;100.00
71772;BME280;59606;52.138;5.424;2024-03-17T06:08:21;102217.22;;;5.67;100.00
71772;BME280;59606;52.138;5.424;2024-03-17T06:10:50;102217.16;;;5.69;100.00
71772;BME280;59606;52.138;5.424;2024-03-17T06:13:16;102215.44;;;5.71;100.00
71772;BME280;59606;52.138;5.424;2024-03-17T06:15:45;102213.69;;;5.72;100.00
71772;BME280;59606;52.138;5.424;2024-03-17T06:18:13;102211.97;;;5.74;100.00
71772;BME280;59606;52.138;5.424;2024-03-17T06:20:44;102207.63;;;5.74;100.00
71772;BME280;59606;52.138;5.424;2024-03-17T06:23:16;102208.47;;;5.78;100.00
71772;BME280;59606;52.138;5.424;2024-03-17T06:26:02;102199.81;;;5.80;100.00
71772;BME280;59606;52.138;5.424;2024-03-17T06:28:31;102200.63;;;5.82;100.00
71772;BME280;59606;52.138;5.424;2024-03-17T06:30:58;102201.44;;;5.86;100.00
71772;BME280;59606;52.138;5.424;2024-03-17T06:33:32;102194.50;;;5.89;100.00
71772;BME280;59606;52.138;5.424;2024-03-17T06:36:01;102205.69;;;5.95;100.00
71772;BME280;59606;52.138;5.424;2024-03-17T06:38:29;102202.16;;;5.99;100.00
71772;BME280;59606;52.138;5.424;2024-03-17T06:40:55;102197.81;;;6.02;100.00
71772;BME280;59606;52.138;5.424;2024-03-17T06:43:21;102200.31;;;6.07;100.00
71772;BME280;59606;52.138;5.424;2024-03-17T06:45:57;102191.66;;;6.11;100.00
71772;BME280;59606;52.138;5.424;2024-03-17T06:48:34;102185.59;;;6.12;100.00
71772;BME280;59606;52.138;5.424;2024-03-17T06:51:00;102195.88;;;6.17;100.00
71772;BME280;59606;52.138;5.424;2024-03-17T06:53:25;102201.84;;;6.20;100.00
71772;BME280;59606;52.138;5.424;2024-03-17T06:55:55;102198.38;;;6.24;100.00
71772;BME280;59606;52.138;5.424;2024-03-17T06:58:23;102207.78;;;6.28;100.00
71772;BME280;59606;52.138;5.424;2024-03-17T07:00:56;102202.53;;;6.33;100.00
71772;BME280;59606;52.138;5.424;2024-03-17T07:03:26;102203.34;;;6.36;100.00
71772;BME280;59606;52.138;5.424;2024-03-17T07:05:56;102197.25;;;6.41;100.00
71772;BME280;59606;52.138;5.424;2024-03-17T07:08:23;102193.72;;;6.45;100.00
71772;BME280;59606;52.138;5.424;2024-03-17T07:10:59;102193.66;;;6.49;100.00
71772;BME280;59606;52.138;5.424;2024-03-17T07:13:28;102192.72;;;6.53;100.00
71772;BME280;59606;52.138;5.424;2024-03-17T07:15:54;102203.88;;;6.57;100.00
71772;BME280;59606;52.138;5.424;2024-03-17T07:18:19;102204.66;;;6.62;100.00
71772;BME280;59606;52.138;5.424;2024-03-17T07:20:45;102204.56;;;6.67;100.00
71772;BME280;59606;52.138;5.424;2024-03-17T07:23:16;102210.56;;;6.72;100.00
71772;BME280;59606;52.138;5.424;2024-03-17T07:25:42;102207.00;;;6.77;100.00
71772;BME280;59606;52.138;5.424;2024-03-17T07:28:09;102205.16;;;6.84;100.00
71772;BME280;59606;52.138;5.424;2024-03-17T07:30:36;102205.00;;;6.93;100.00
71772;BME280;59606;52.138;5.424;2024-03-17T07:33:01;102209.16;;;7.02;100.00
71772;BME280;59606;52.138;5.424;2024-03-17T07:35:27;102209.03;;;7.09;100.00
71772;BME280;59606;52.138;5.424;2024-03-17T07:37:53;102205.41;;;7.18;100.00
71772;BME280;59606;52.138;5.424;2024-03-17T07:40:18;102201.84;;;7.24;100.00
71772;BME280;59606;52.138;5.424;2024-03-17T07:42:45;102196.53;;;7.31;100.00
71772;BME280;59606;52.138;5.424;2024-03-17T07:45:11;102191.19;;;7.38;100.00
71772;BME280;59606;52.138;5.424;2024-03-17T07:47:38;102201.38;;;7.47;100.00
71772;BME280;59606;52.138;5.424;2024-03-17T07:50:07;102200.41;;;7.52;100.00
71772;BME280;59606;52.138;5.424;2024-03-17T07:52:33;102199.41;;;7.60;100.00
71772;BME280;59606;52.138;5.424;2024-03-17T07:54:59;102188.00;;;7.68;100.00
71772;BME280;59606;52.138;5.424;2024-03-17T07:57:24;102178.31;;;7.76;100.00
71772;BME280;59606;52.138;5.424;2024-03-17T07:59:50;102179.94;;;7.80;100.00
71772;BME280;59606;52.138;5.424;2024-03-17T08:02:17;102178.91;;;7.88;100.00
71772;BME280;59606;52.138;5.424;2024-03-17T08:04:42;102175.34;;;7.93;100.00
71772;BME280;59606;52.138;5.424;2024-03-17T08:07:10;102178.63;;;8.01;100.00
71772;BME280;59606;52.138;5.424;2024-03-17T08:09:36;102191.44;;;8.08;100.00
71772;BME280;59606;52.138;5.424;2024-03-17T08:12:02;102187.88;;;8.13;100.00
71772;BME280;59606;52.138;5.424;2024-03-17T08:14:30;102192.06;;;8.19;100.00
71772;BME280;59606;52.138;5.424;2024-03-17T08:16:56;102185.94;;;8.21;100.00
71772;BME280;59606;52.138;5.424;2024-03-17T08:19:21;102185.91;;;8.23;100.00
71772;BME280;59606;52.138;5.424;2024-03-17T08:21:47;102188.44;;;8.26;100.00
71772;BME280;59606;52.138;5.424;2024-03-17T08:24:13;102184.09;;;8.26;100.00
71772;BME280;59606;52.138;5.424;2024-03-17T08:26:39;102182.34;;;8.29;100.00
71772;BME280;59606;52.138;5.424;2024-03-17T08:29:06;102179.75;;;8.29;100.00
71772;BME280;59606;52.138;5.424;2024-03-17T08:31:32;102180.59;;;8.29;100.00
71772;BME280;59606;52.138;5.424;2024-03-17T08:33:57;102178.00;;;8.29;100.00
71772;BME280;59606;52.138;5.424;2024-03-17T08:36:23;102180.53;;;8.31;100.00
71772;BME280;59606;52.138;5.424;2024-03-17T08:38:50;102177.09;;;8.30;100.00
71772;BME280;59606;52.138;5.424;2024-03-17T08:41:16;102174.50;;;8.30;100.00
71772;BME280;59606;52.138;5.424;2024-03-17T08:43:41;102174.47;;;8.32;100.00
71772;BME280;59606;52.138;5.424;2024-03-17T08:46:09;102169.22;;;8.33;100.00
71772;BME280;59606;52.138;5.424;2024-03-17T08:48:36;102177.78;;;8.37;100.00
71772;BME280;59606;52.138;5.424;2024-03-17T08:51:05;102176.00;;;8.42;100.00
71772;BME280;59606;52.138;5.424;2024-03-17T08:53:31;102168.91;;;8.47;100.00
71772;BME280;59606;52.138;5.424;2024-03-17T08:55:58;102173.06;;;8.54;100.00
71772;BME280;59606;52.138;5.424;2024-03-17T08:58:26;102171.16;;;8.62;100.00
71772;BME280;59606;52.138;5.424;2024-03-17T09:00:53;102166.69;;;8.67;100.00
71772;BME280;59606;52.138;5.424;2024-03-17T09:03:19;102177.75;;;8.76;100.00
71772;BME280;59606;52.138;5.424;2024-03-17T09:05:47;102168.84;;;8.84;100.00
71772;BME280;59606;52.138;5.424;2024-03-17T09:08:22;102159.09;;;8.92;100.00
71772;BME280;59606;52.138;5.424;2024-03-17T09:10:54;102165.72;;;9.04;100.00
71772;BME280;59606;52.138;5.424;2024-03-17T09:13:23;102158.69;;;9.08;100.00
71772;BME280;59606;52.138;5.424;2024-03-17T09:15:54;102165.38;;;9.16;100.00
71772;BME280;59606;52.138;5.424;2024-03-17T09:18:28;102163.47;;;9.23;100.00
71772;BME280;59606;52.138;5.424;2024-03-17T09:21:04;102156.38;;;9.28;100.00
71772;BME280;59606;52.138;5.424;2024-03-17T09:23:31;102159.72;;;9.33;100.00
71772;BME280;59606;52.138;5.424;2024-03-17T09:26:09;102156.97;;;9.38;100.00
71772;BME280;59606;52.138;5.424;2024-03-17T09:28:36;102154.28;;;9.41;100.00
71772;BME280;59606;52.138;5.424;2024-03-17T09:31:03;102154.25;;;9.42;100.00
71772;BME280;59606;52.138;5.424;2024-03-17T09:33:32;102157.63;;;9.46;100.00
71772;BME280;59606;52.138;5.424;2024-03-17T09:36:03;102156.75;;;9.45;100.00
71772;BME280;59606;52.138;5.424;2024-03-17T09:38:31;102155.81;;;9.48;100.00
71772;BME280;59606;52.138;5.424;2024-03-17T09:40:57;102158.38;;;9.50;100.00
71772;BME280;59606;52.138;5.424;2024-03-17T09:43:27;102149.50;;;9.57;100.00
71772;BME280;59606;52.138;5.424;2024-03-17T09:45:53;102147.56;;;9.63;100.00
71772;BME280;59606;52.138;5.424;2024-03-17T09:48:24;102156.91;;;9.69;100.00
71772;BME280;59606;52.138;5.424;2024-03-17T09:50:54;102150.69;;;9.75;100.00
71772;BME280;59606;52.138;5.424;2024-03-17T09:53:32;102147.81;;;9.84;100.00
71772;BME280;59606;52.138;5.424;2024-03-17T09:56:00;102148.38;;;9.94;100.00
71772;BME280;59606;52.138;5.424;2024-03-17T09:58:27;102149.81;;;10.02;100.00
71772;BME280;59606;52.138;5.424;2024-03-17T10:00:54;102152.31;;;10.07;100.00
71772;BME280;59606;52.138;5.424;2024-03-17T10:03:46;102140.94;;;10.09;100.00
71772;BME280;59606;52.138;5.424;2024-03-17T10:06:16;102136.31;;;10.18;100.00
71772;BME280;59606;52.138;5.424;2024-03-17T10:11:15;102137.41;;;10.38;100.00
71772;BME280;59606;52.138;5.424;2024-03-17T10:13:45;102134.50;;;10.48;100.00
71772;BME280;59606;52.138;5.424;2024-03-17T10:16:22;102131.69;;;10.54;100.00
71772;BME280;59606;52.138;5.424;2024-03-17T10:18:49;102135.97;;;10.56;100.00
71772;BME280;59606;52.138;5.424;2024-03-17T10:26:43;102128.44;;;10.72;100.00
71772;BME280;59606;52.138;5.424;2024-03-17T10:31:57;102123.88;;;10.79;100.00
71772;BME280;59606;52.138;5.424;2024-03-17T10:34:25;102115.78;;;10.87;100.00
71772;BME280;59606;52.138;5.424;2024-03-17T10:36:52;102123.16;;;10.99;100.00
71772;BME280;59606;52.138;5.424;2024-03-17T10:39:30;102109.41;;;11.19;100.00
71772;BME280;59606;52.138;5.424;2024-03-17T10:42:01;102113.31;;;11.30;100.00
71772;BME280;59606;52.138;5.424;2024-03-17T10:44:30;102104.06;;;11.45;99.14
71772;BME280;59606;52.138;5.424;2024-03-17T10:46:58;102107.06;;;11.58;98.54
71772;BME280;59606;52.138;5.424;2024-03-17T10:49:34;102095.38;;;11.67;97.70
71772;BME280;59606;52.138;5.424;2024-03-17T10:52:07;102094.91;;;11.79;97.23
71772;BME280;59606;52.138;5.424;2024-03-17T10:54:34;102091.91;;;11.90;96.70
71772;BME280;59606;52.138;5.424;2024-03-17T10:57:23;102099.16;;;12.03;97.24
71772;BME280;59606;52.138;5.424;2024-03-17T10:59:52;102093.19;;;12.22;96.67
71772;BME280;59606;52.138;5.424;2024-03-17T11:02:22;102101.25;;;12.38;95.11
71772;BME280;59606;52.138;5.424;2024-03-17T11:04:58;102098.78;;;12.35;94.08
71772;BME280;59606;52.138;5.424;2024-03-17T11:07:25;102094.00;;;12.44;95.47
71772;BME280;59606;52.138;5.424;2024-03-17T11:09:53;102090.72;;;12.60;95.24
71772;BME280;59606;52.138;5.424;2024-03-17T11:12:40;102085.81;;;12.72;93.99
71772;BME280;59606;52.138;5.424;2024-03-17T11:17:49;102087.25;;;12.80;93.12
71772;BME280;59606;52.138;5.424;2024-03-17T11:20:23;102085.56;;;12.79;92.36
71772;BME280;59606;52.138;5.424;2024-03-17T11:22:52;102083.56;;;12.84;92.49
71772;BME280;59606;52.138;5.424;2024-03-17T11:28:00;102082.81;;;12.82;90.83
71772;BME280;59606;52.138;5.424;2024-03-17T11:39:05;102066.66;;;12.72;91.08
71772;BME280;59606;52.138;5.424;2024-03-17T11:41:46;102058.25;;;12.65;91.57
71772;BME280;59606;52.138;5.424;2024-03-17T11:46:54;102063.81;;;12.58;91.46
71772;BME280;59606;52.138;5.424;2024-03-17T11:49:39;102069.88;;;12.58;91.63
71772;BME280;59606;52.138;5.424;2024-03-17T11:52:12;102067.59;;;12.50;91.75
71772;BME280;59606;52.138;5.424;2024-03-17T11:54:40;102083.56;;;12.44;92.22
71772;BME280;59606;52.138;5.424;2024-03-17T11:57:27;102073.34;;;12.38;92.48
71772;BME280;59606;52.138;5.424;2024-03-17T11:59:54;102071.91;;;12.31;92.30
71772;BME280;59606;52.138;5.424;2024-03-17T12:02:29;102071.97;;;12.30;92.81
71772;BME280;59606;52.138;5.424;2024-03-17T12:05:00;102070.41;;;12.25;93.16
71772;BME280;59606;52.138;5.424;2024-03-17T12:07:26;102074.91;;;12.22;92.96
71772;BME280;59606;52.138;5.424;2024-03-17T12:09:53;102071.63;;;12.17;93.39
71772;BME280;59606;52.138;5.424;2024-03-17T12:15:26;102051.84;;;12.11;94.10
71772;BME280;59606;52.138;5.424;2024-03-17T12:17:54;102054.34;;;12.14;93.96
71772;BME280;59606;52.138;5.424;2024-03-17T12:20:20;102062.06;;;12.17;94.10
71772;BME280;59606;52.138;5.424;2024-03-17T12:22:48;102054.00;;;12.22;93.55
71772;BME280;59606;52.138;5.424;2024-03-17T12:25:20;102059.03;;;12.26;93.73
71772;BME280;59606;52.138;5.424;2024-03-17T12:27:46;102049.16;;;12.33;93.26
71772;BME280;59606;52.138;5.424;2024-03-17T12:30:15;102046.25;;;12.41;92.96
71772;BME280;59606;52.138;5.424;2024-03-17T12:32:43;102038.06;;;12.48;93.41
71772;BME280;59606;52.138;5.424;2024-03-17T12:35:14;102032.63;;;12.53;92.46
71772;BME280;59606;52.138;5.424;2024-03-17T12:37:44;102033.59;;;12.50;92.89
71772;BME280;59606;52.138;5.424;2024-03-17T12:40:25;102031.88;;;12.51;93.06
71772;BME280;59606;52.138;5.424;2024-03-17T12:42:58;102029.97;;;12.55;92.67
71772;BME280;59606;52.138;5.424;2024-03-17T12:45:25;102023.72;;;12.57;92.69
71772;BME280;59606;52.138;5.424;2024-03-17T12:47:53;102011.72;;;12.53;92.50
71772;BME280;59606;52.138;5.424;2024-03-17T12:50:20;102016.94;;;12.53;92.31
71772;BME280;59606;52.138;5.424;2024-03-17T12:52:54;102008.13;;;12.56;93.27
71772;BME280;59606;52.138;5.424;2024-03-17T12:55:22;102006.13;;;12.61;92.64
71772;BME280;59606;52.138;5.424;2024-03-17T12:58:09;102000.78;;;12.64;92.91
71772;BME280;59606;52.138;5.424;2024-03-17T13:01:04;102002.63;;;12.62;92.58
71772;BME280;59606;52.138;5.424;2024-03-17T13:03:36;101987.56;;;12.67;92.79
71772;BME280;59606;52.138;5.424;2024-03-17T13:06:03;101992.78;;;12.67;92.71
71772;BME280;59606;52.138;5.424;2024-03-17T13:08:32;101989.16;;;12.71;92.24
71772;BME280;59606;52.138;5.424;2024-03-17T13:10:59;101997.97;;;12.68;91.60
71772;BME280;59606;52.138;5.424;2024-03-17T13:13:26;101984.06;;;12.68;92.11
71772;BME280;59606;52.138;5.424;2024-03-17T13:15:52;101985.78;;;12.67;91.93
71772;BME280;59606;52.138;5.424;2024-03-17T13:18:19;101980.56;;;12.67;92.38
71772;BME280;59606;52.138;5.424;2024-03-17T13:20:50;101978.75;;;12.69;92.31
71772;BME280;59606;52.138;5.424;2024-03-17T13:23:17;101982.84;;;12.75;92.60
71772;BME280;59606;52.138;5.424;2024-03-17T13:25:44;101982.00;;;12.74;92.68
71772;BME280;59606;52.138;5.424;2024-03-17T13:28:15;101979.31;;;12.76;92.36